Time;durP1;ratioP1;P1;durP2;ratioP2;P2;SDS_P1;SDS_P2;PMS_P1;PMS_P2;Temp;Humidity;BMP_temperature;BMP_pressure;BME280_temperature;BME280_humidity;BME280_pressure;Samples;Min_cycle;Max_cycle;Signal;HPM_P1;HPM_P2
2023/03/13 00:00:52;;;;;;;24.80;5.38;;;8.50;99.90;;;;;;5109569;28;20510;-80
2023/03/13 00:03:17;;;;;;;20.10;4.40;;;8.50;99.90;;;;;;5108579;28;20075;-80
2023/03/13 00:05:43;;;;;;;26.67;4.45;;;8.50;99.90;;;;;;5107777;28;20080;-79
2023/03/13 00:08:08;;;;;;;32.50;5.55;;;8.50;99.90;;;;;;5104202;28;20035;-80
2023/03/13 00:10:38;;;;;;;25.40;5.60;;;8.40;99.90;;;;;;5108885;27;20043;-80
2023/03/13 00:13:04;;;;;;;19.02;5.18;;;8.40;99.90;;;;;;5111743;27;20042;-80
2023/03/13 00:15:30;;;;;;;22.77;5.72;;;8.40;99.90;;;;;;5103565;28;20040;-80
2023/03/13 00:17:55;;;;;;;29.92;4.95;;;8.40;99.90;;;;;;5111586;27;20047;-80
2023/03/13 00:20:21;;;;;;;23.70;5.18;;;8.40;99.90;;;;;;5111452;27;20498;-81
2023/03/13 00:22:46;;;;;;;30.35;5.97;;;8.40;99.90;;;;;;5113065;27;20047;-80
2023/03/13 00:25:12;;;;;;;26.65;5.60;;;8.40;99.90;;;;;;5113257;27;20117;-80
2023/03/13 00:27:37;;;;;;;26.95;5.25;;;8.40;99.90;;;;;;5141791;27;20035;-79
2023/03/13 00:30:03;;;;;;;26.98;5.90;;;8.40;99.90;;;;;;5108111;27;20114;-79
2023/03/13 00:32:29;;;;;;;32.30;5.00;;;8.30;99.90;;;;;;5108088;27;20593;-79
2023/03/13 00:34:54;;;;;;;25.63;6.07;;;8.30;99.90;;;;;;5104531;27;20039;-80
2023/03/13 00:37:20;;;;;;;30.00;6.43;;;8.30;99.90;;;;;;5104712;27;20032;-79
2023/03/13 00:39:45;;;;;;;30.90;5.40;;;8.30;99.90;;;;;;5107752;28;20036;-80
2023/03/13 00:42:11;;;;;;;33.13;6.25;;;8.30;99.90;;;;;;5101305;28;20040;-80
2023/03/13 00:44:36;;;;;;;27.15;5.53;;;8.30;99.90;;;;;;5141283;27;20036;-80
2023/03/13 00:47:04;;;;;;;25.27;5.93;;;8.40;99.90;;;;;;5108625;27;20142;-80
2023/03/13 00:49:30;;;;;;;26.77;5.95;;;8.30;99.90;;;;;;5115000;27;20039;-79
2023/03/13 00:51:55;;;;;;;25.58;6.28;;;8.30;99.90;;;;;;5109467;27;20562;-80
2023/03/13 00:54:21;;;;;;;24.30;5.05;;;8.30;99.90;;;;;;5102406;27;20118;-79
2023/03/13 00:56:47;;;;;;;25.20;5.50;;;8.30;99.90;;;;;;5137282;27;20047;-79
2023/03/13 00:59:13;;;;;;;35.88;6.45;;;8.30;99.90;;;;;;5105262;28;20114;-79
2023/03/13 01:01:39;;;;;;;26.83;5.85;;;8.30;99.90;;;;;;5097146;28;20036;-79
2023/03/13 01:04:08;;;;;;;25.95;5.57;;;8.30;99.90;;;;;;5115674;27;20491;-80
2023/03/13 01:06:36;;;;;;;31.10;5.72;;;8.30;99.90;;;;;;5105795;28;20513;-79
2023/03/13 01:09:03;;;;;;;25.63;4.95;;;8.30;99.90;;;;;;5108508;28;20430;-80
2023/03/13 01:11:33;;;;;;;27.70;6.50;;;8.30;99.90;;;;;;5111475;27;20035;-79
2023/03/13 01:14:00;;;;;;;26.83;5.63;;;8.30;99.90;;;;;;5103452;28;20051;-79
2023/03/13 01:16:28;;;;;;;25.45;6.40;;;8.30;99.90;;;;;;5104400;28;20127;-80
2023/03/13 01:18:58;;;;;;;28.75;5.72;;;8.30;99.90;;;;;;5107365;28;20044;-79
2023/03/13 01:21:24;;;;;;;26.92;6.10;;;8.30;99.90;;;;;;5112135;28;20046;-79
2023/03/13 01:23:51;;;;;;;24.20;5.53;;;8.30;99.90;;;;;;5088020;28;20502;-79
2023/03/13 01:26:17;;;;;;;25.17;5.28;;;8.30;99.90;;;;;;5108618;28;20088;-80
2023/03/13 01:28:43;;;;;;;28.42;6.18;;;8.30;99.90;;;;;;5106609;28;20042;-80
2023/03/13 01:31:12;;;;;;;25.77;5.57;;;8.30;99.90;;;;;;5122079;28;20035;-80
2023/03/13 01:33:38;;;;;;;29.60;5.53;;;8.40;99.90;;;;;;5114872;27;20059;-80
2023/03/13 01:36:04;;;;;;;28.17;5.97;;;8.40;99.90;;;;;;5108250;27;20518;-80
2023/03/13 01:38:29;;;;;;;31.05;5.72;;;8.40;99.90;;;;;;5103680;28;20130;-80
2023/03/13 01:40:55;;;;;;;23.50;5.80;;;8.40;99.90;;;;;;5112807;28;20036;-79
2023/03/13 01:43:23;;;;;;;23.98;5.97;;;8.40;99.90;;;;;;5137091;27;20047;-80
2023/03/13 01:46:17;;;;;;;23.80;5.95;;;8.40;99.90;;;;;;5103301;28;20031;-79
2023/03/13 01:48:56;;;;;;;27.48;5.80;;;8.40;99.90;;;;;;5120527;28;20404;-79
2023/03/13 01:51:30;;;;;;;26.88;5.22;;;8.40;99.90;;;;;;5116285;28;20031;-79
2023/03/13 01:54:13;;;;;;;21.15;5.07;;;8.40;99.90;;;;;;5110983;28;20449;-79
2023/03/13 01:56:52;;;;;;;19.77;4.88;;;8.40;99.90;;;;;;5101717;28;20051;-79
2023/03/13 01:59:29;;;;;;;24.80;6.30;;;8.40;99.90;;;;;;5105862;28;20035;-79
2023/03/13 02:01:58;;;;;;;21.85;5.28;;;8.30;99.90;;;;;;5106466;27;20048;-79
2023/03/13 02:04:29;;;;;;;23.17;5.43;;;8.30;99.90;;;;;;5109989;28;20049;-80
2023/03/13 02:07:00;;;;;;;23.58;5.95;;;8.30;99.90;;;;;;5106123;28;20034;-80
2023/03/13 02:09:30;;;;;;;23.10;5.00;;;8.30;99.90;;;;;;5109004;28;20061;-79
2023/03/13 02:12:10;;;;;;;28.05;6.38;;;8.30;99.90;;;;;;5104836;28;20023;-79
2023/03/13 02:14:38;;;;;;;23.08;5.55;;;8.30;99.90;;;;;;5115736;28;20490;-79
2023/03/13 02:17:05;;;;;;;25.88;5.55;;;8.30;99.90;;;;;;5107751;28;20040;-79
2023/03/13 02:19:34;;;;;;;31.30;6.38;;;8.30;99.90;;;;;;5091088;28;20067;-79
2023/03/13 02:22:30;;;;;;;26.15;6.53;;;8.30;99.90;;;;;;5112212;28;20048;-79
2023/03/13 02:25:21;;;;;;;26.33;5.95;;;8.30;99.90;;;;;;5104913;28;20064;-77
2023/03/13 02:27:49;;;;;;;25.13;5.82;;;8.30;99.90;;;;;;5099644;28;20042;-78
2023/03/13 02:30:15;;;;;;;20.20;5.35;;;8.30;99.90;;;;;;5119218;27;20070;-79
2023/03/13 02:32:41;;;;;;;23.35;5.72;;;8.30;99.90;;;;;;5106335;27;20074;-79
2023/03/13 02:35:09;;;;;;;16.70;5.20;;;8.20;99.90;;;;;;5111229;28;20039;-79
2023/03/13 02:37:35;;;;;;;25.40;6.65;;;8.20;99.90;;;;;;5107315;28;20063;-79
2023/03/13 02:40:08;;;;;;;20.25;5.32;;;8.20;99.90;;;;;;5109706;27;20282;-79
2023/03/13 02:42:37;;;;;;;22.33;5.40;;;8.20;99.90;;;;;;5105072;28;20066;-79
2023/03/13 02:45:03;;;;;;;18.70;5.05;;;8.30;99.90;;;;;;5085463;28;20036;-79
2023/03/13 02:47:28;;;;;;;22.33;5.20;;;8.30;99.90;;;;;;5095226;28;20399;-78
2023/03/13 02:49:54;;;;;;;18.23;4.85;;;8.30;99.90;;;;;;5101494;27;20119;-78
2023/03/13 02:52:27;;;;;;;18.45;5.22;;;8.30;99.90;;;;;;5111931;27;20189;-79
2023/03/13 02:55:01;;;;;;;16.52;5.03;;;8.40;99.90;;;;;;5135389;27;20368;-79
2023/03/13 02:57:28;;;;;;;19.33;5.57;;;8.40;99.90;;;;;;5106435;27;20148;-80
2023/03/13 02:59:53;;;;;;;16.65;4.85;;;8.40;99.90;;;;;;5105737;27;20042;-79
2023/03/13 03:02:19;;;;;;;15.50;4.63;;;8.40;99.90;;;;;;5118497;27;20039;-79
2023/03/13 03:04:45;;;;;;;13.40;4.28;;;8.40;99.90;;;;;;5095691;27;20050;-78
2023/03/13 03:07:10;;;;;;;13.02;4.40;;;8.40;99.90;;;;;;5118366;27;20035;-78
2023/03/13 03:09:36;;;;;;;12.43;4.55;;;8.50;99.90;;;;;;5111367;27;20031;-79
2023/03/13 03:12:02;;;;;;;9.90;4.03;;;8.50;99.90;;;;;;5110416;28;20084;-78
2023/03/13 03:14:27;;;;;;;14.40;4.43;;;8.50;99.90;;;;;;5141177;27;20039;-78
2023/03/13 03:16:53;;;;;;;13.57;4.82;;;8.60;99.90;;;;;;5094954;28;20063;-79
2023/03/13 03:19:18;;;;;;;11.88;3.92;;;8.60;99.90;;;;;;5109372;27;20056;-79
2023/03/13 03:21:44;;;;;;;8.98;3.95;;;8.60;99.90;;;;;;5109961;27;20085;-79
2023/03/13 03:24:10;;;;;;;11.27;4.15;;;8.60;99.90;;;;;;5105487;27;20036;-79
2023/03/13 03:26:35;;;;;;;8.05;3.80;;;8.60;99.90;;;;;;5112956;27;20085;-80
2023/03/13 03:29:01;;;;;;;9.50;3.70;;;8.60;99.90;;;;;;5107313;28;20054;-79
2023/03/13 03:31:26;;;;;;;10.80;4.22;;;8.70;99.90;;;;;;5116929;27;20035;-79
2023/03/13 03:33:52;;;;;;;9.70;4.15;;;8.70;99.90;;;;;;5108789;28;20494;-79
2023/03/13 03:36:21;;;;;;;9.13;3.83;;;8.70;99.90;;;;;;5137002;27;20078;-79
2023/03/13 03:38:46;;;;;;;8.88;3.50;;;8.80;99.90;;;;;;5108713;28;20059;-80
2023/03/13 03:41:13;;;;;;;9.98;4.10;;;8.80;99.90;;;;;;5109942;27;20036;-79
2023/03/13 03:43:39;;;;;;;9.32;3.63;;;8.80;99.90;;;;;;5113429;27;20507;-79
2023/03/13 03:46:05;;;;;;;7.45;3.45;;;8.90;99.90;;;;;;5104426;28;20044;-79
2023/03/13 03:48:31;;;;;;;9.43;4.00;;;8.90;99.90;;;;;;5116049;27;20403;-79
2023/03/13 03:50:57;;;;;;;8.05;3.60;;;9.00;99.90;;;;;;5113356;27;20108;-78
2023/03/13 03:53:22;;;;;;;9.05;4.30;;;9.00;99.90;;;;;;5121709;27;20035;-78
2023/03/13 03:55:48;;;;;;;6.43;3.95;;;9.10;99.90;;;;;;5109439;27;20078;-79
2023/03/13 03:58:14;;;;;;;7.05;3.90;;;9.00;99.90;;;;;;5115667;27;20490;-79
2023/03/13 04:00:43;;;;;;;5.88;3.40;;;9.10;99.90;;;;;;5117319;27;20505;-80
2023/03/13 04:03:09;;;;;;;7.18;3.65;;;9.10;99.90;;;;;;5109264;28;20035;-78
2023/03/13 04:05:34;;;;;;;5.85;3.25;;;9.10;99.90;;;;;;5107441;28;20119;-79
2023/03/13 04:08:00;;;;;;;5.93;3.60;;;9.10;99.90;;;;;;5109951;28;20035;-80
2023/03/13 04:10:25;;;;;;;5.15;3.22;;;9.20;99.90;;;;;;5113571;27;20075;-79
2023/03/13 04:12:51;;;;;;;5.93;3.55;;;9.30;99.90;;;;;;5110214;27;20040;-78
2023/03/13 04:15:16;;;;;;;6.03;3.13;;;9.30;99.90;;;;;;5113867;27;20251;-80
2023/03/13 04:17:42;;;;;;;5.07;3.58;;;9.30;99.90;;;;;;5113485;27;20130;-79
2023/03/13 04:20:10;;;;;;;7.63;3.85;;;9.40;99.90;;;;;;5088981;28;20043;-80
2023/03/13 04:22:35;;;;;;;7.35;4.18;;;9.50;99.90;;;;;;5111508;27;20058;-80
2023/03/13 04:25:01;;;;;;;6.32;4.28;;;9.50;99.90;;;;;;5109999;27;20035;-80
2023/03/13 04:27:27;;;;;;;7.85;5.05;;;9.60;99.90;;;;;;5096465;28;20036;-80
2023/03/13 04:29:52;;;;;;;8.23;5.00;;;9.60;99.90;;;;;;5110089;27;20024;-80
2023/03/13 04:32:18;;;;;;;10.95;6.03;;;9.60;99.90;;;;;;5141194;27;20050;-80
2023/03/13 04:34:43;;;;;;;8.13;5.90;;;9.70;99.90;;;;;;5114911;27;20510;-80
2023/03/13 04:37:08;;;;;;;9.43;6.43;;;9.70;99.90;;;;;;5102330;28;20031;-80
2023/03/13 04:39:34;;;;;;;11.07;6.97;;;9.80;99.90;;;;;;5101446;28;20047;-80
2023/03/13 04:42:00;;;;;;;11.35;7.32;;;9.80;99.90;;;;;;5109825;27;20039;-79
2023/03/13 04:44:25;;;;;;;12.20;7.90;;;9.90;99.90;;;;;;5114216;27;20498;-80
2023/03/13 04:46:51;;;;;;;14.68;7.85;;;10.00;99.90;;;;;;5108271;27;20028;-80
2023/03/13 04:49:16;;;;;;;11.95;7.30;;;10.10;99.90;;;;;;5111739;27;20110;-80
2023/03/13 04:51:43;;;;;;;13.63;8.20;;;10.00;99.90;;;;;;5096757;28;20067;-80
2023/03/13 04:54:09;;;;;;;13.40;8.02;;;10.10;99.90;;;;;;5094406;28;20455;-80
2023/03/13 04:56:35;;;;;;;13.57;8.30;;;10.10;99.90;;;;;;5108569;28;20118;-80
2023/03/13 04:59:00;;;;;;;11.48;7.88;;;10.20;99.90;;;;;;5111746;27;20071;-80
2023/03/13 05:01:26;;;;;;;13.23;8.52;;;10.20;99.90;;;;;;5096630;27;20035;-80
2023/03/13 05:03:51;;;;;;;11.98;7.88;;;10.30;99.90;;;;;;5131648;27;20036;-81
2023/03/13 05:06:17;;;;;;;11.50;7.95;;;10.40;99.90;;;;;;5111575;27;20040;-81
2023/03/13 05:08:43;;;;;;;12.95;7.57;;;10.30;99.90;;;;;;5109098;28;20031;-81
2023/03/13 05:11:09;;;;;;;10.20;6.82;;;10.40;99.90;;;;;;5106235;28;20032;-82
2023/03/13 05:13:35;;;;;;;15.48;8.18;;;10.50;99.90;;;;;;5112382;28;20036;-80
2023/03/13 05:16:01;;;;;;;17.23;8.77;;;10.60;99.90;;;;;;5093917;28;20529;-80
2023/03/13 05:18:27;;;;;;;14.13;8.85;;;10.70;99.90;;;;;;5109144;28;20514;-81
2023/03/13 05:20:52;;;;;;;17.90;9.13;;;10.70;99.90;;;;;;5088498;28;20039;-81
2023/03/13 05:23:18;;;;;;;13.05;7.80;;;10.70;99.90;;;;;;5092908;28;20035;-81
2023/03/13 05:25:43;;;;;;;13.05;8.15;;;10.70;99.90;;;;;;5112322;28;20447;-81
2023/03/13 05:28:09;;;;;;;13.50;7.55;;;10.80;99.90;;;;;;5099963;28;20076;-80
2023/03/13 05:30:34;;;;;;;12.23;7.22;;;11.00;99.90;;;;;;5110339;28;20039;-83
2023/03/13 05:33:00;;;;;;;13.55;6.72;;;11.10;99.90;;;;;;5108242;28;20035;-82
2023/03/13 05:35:25;;;;;;;15.57;6.53;;;11.20;99.90;;;;;;5105554;28;20075;-82
2023/03/13 05:37:51;;;;;;;9.60;6.05;;;11.10;99.90;;;;;;5143462;27;20046;-81
2023/03/13 05:40:16;;;;;;;12.35;5.85;;;11.10;99.90;;;;;;5104824;28;20403;-81
2023/03/13 05:42:43;;;;;;;10.52;5.68;;;11.10;99.90;;;;;;5113553;28;20043;-81
2023/03/13 05:45:09;;;;;;;8.15;5.50;;;11.10;99.90;;;;;;5102921;28;20552;-82
2023/03/13 05:47:37;;;;;;;15.07;6.50;;;11.10;99.90;;;;;;5111333;28;20074;-81
2023/03/13 05:50:03;;;;;;;11.23;5.90;;;11.10;99.90;;;;;;5094195;28;20426;-81
2023/03/13 05:52:28;;;;;;;13.30;5.18;;;11.20;99.90;;;;;;5105891;28;20032;-81
2023/03/13 05:54:54;;;;;;;12.98;5.45;;;11.20;99.90;;;;;;5110863;28;20089;-81
2023/03/13 05:57:19;;;;;;;13.32;5.50;;;11.20;99.90;;;;;;5118626;28;20043;-82
2023/03/13 05:59:45;;;;;;;12.40;5.55;;;11.10;99.90;;;;;;5111230;28;20050;-82
2023/03/13 06:02:11;;;;;;;10.48;5.10;;;11.20;99.90;;;;;;5110977;27;20043;-82
2023/03/13 06:04:36;;;;;;;12.80;5.28;;;11.10;99.90;;;;;;5147480;27;20066;-82
2023/03/13 06:07:02;;;;;;;11.68;5.20;;;11.10;99.90;;;;;;5108186;27;20050;-81
2023/03/13 06:09:27;;;;;;;14.38;4.88;;;11.00;99.90;;;;;;5110754;28;20069;-81
2023/03/13 06:11:53;;;;;;;12.18;5.10;;;11.10;99.90;;;;;;5112078;28;20035;-82
2023/03/13 06:14:19;;;;;;;14.75;5.07;;;11.00;99.90;;;;;;5112404;27;20055;-81
2023/03/13 06:16:44;;;;;;;12.07;5.25;;;11.00;99.90;;;;;;5144798;27;20044;-81
2023/03/13 06:19:10;;;;;;;13.18;5.78;;;10.90;99.90;;;;;;5143032;27;20085;-81
2023/03/13 06:21:36;;;;;;;9.20;5.22;;;10.90;99.90;;;;;;5112067;27;20043;-81
2023/03/13 06:24:02;;;;;;;9.57;6.05;;;10.80;99.90;;;;;;5098091;28;20410;-81
2023/03/13 06:26:28;;;;;;;12.07;5.47;;;10.80;99.90;;;;;;5109290;28;20035;-81
2023/03/13 06:28:53;;;;;;;13.18;5.82;;;10.90;99.90;;;;;;5114426;27;20047;-83
2023/03/13 06:31:19;;;;;;;12.05;5.55;;;10.90;99.90;;;;;;5114986;27;20110;-81
2023/03/13 06:33:44;;;;;;;16.50;6.90;;;10.90;99.90;;;;;;5108578;27;20047;-83
2023/03/13 06:36:10;;;;;;;14.57;7.28;;;11.00;99.90;;;;;;5109193;28;20046;-82
2023/03/13 06:38:35;;;;;;;13.45;6.50;;;11.10;99.90;;;;;;5113340;27;20043;-81
2023/03/13 06:41:01;;;;;;;17.23;7.55;;;11.10;99.90;;;;;;5117756;27;20036;-82
2023/03/13 06:43:27;;;;;;;16.85;6.97;;;11.10;99.90;;;;;;5126519;27;20035;-81
2023/03/13 06:45:52;;;;;;;15.50;6.63;;;11.20;99.90;;;;;;5110066;27;20035;-81
2023/03/13 06:48:18;;;;;;;12.93;6.55;;;11.30;99.90;;;;;;5135043;27;20031;-81
2023/03/13 06:50:44;;;;;;;15.20;7.40;;;11.30;99.90;;;;;;5103794;28;20464;-81
2023/03/13 06:53:27;;;;;;;13.60;6.97;;;11.30;99.90;;;;;;5105962;28;20051;-81
2023/03/13 06:55:53;;;;;;;13.82;6.13;;;11.30;99.90;;;;;;5133198;27;20032;-81
2023/03/13 06:58:18;;;;;;;16.23;6.13;;;11.40;99.90;;;;;;5111937;27;20035;-82
2023/03/13 07:00:45;;;;;;;13.07;5.63;;;11.40;99.90;;;;;;5109097;27;20097;-80
2023/03/13 07:03:11;;;;;;;17.48;6.03;;;11.40;99.90;;;;;;5111493;27;20122;-81
2023/03/13 07:05:36;;;;;;;14.32;6.38;;;11.30;99.90;;;;;;5113570;28;20170;-81
2023/03/13 07:08:02;;;;;;;13.90;6.18;;;11.40;99.90;;;;;;5144632;27;20119;-81
2023/03/13 07:10:29;;;;;;;15.38;5.65;;;11.40;99.90;;;;;;5110015;28;20473;-82
2023/03/13 07:12:55;;;;;;;15.18;6.55;;;11.40;99.90;;;;;;5109957;28;20471;-81
2023/03/13 07:15:21;;;;;;;13.98;5.90;;;11.40;99.90;;;;;;5109206;28;20074;-80
2023/03/13 07:17:46;;;;;;;15.80;5.50;;;11.40;99.90;;;;;;5110138;28;20051;-80
2023/03/13 07:20:12;;;;;;;11.38;5.50;;;11.50;99.90;;;;;;5117641;27;20038;-81
2023/03/13 07:22:37;;;;;;;15.20;5.57;;;11.50;99.90;;;;;;5140122;27;20040;-81
2023/03/13 07:25:04;;;;;;;14.85;5.75;;;11.40;99.90;;;;;;5093580;28;20039;-81
2023/03/13 07:27:30;;;;;;;16.95;6.05;;;11.40;99.90;;;;;;5111570;28;20035;-81
2023/03/13 07:29:55;;;;;;;10.90;5.15;;;11.50;99.90;;;;;;5107268;28;20043;-80
2023/03/13 07:32:21;;;;;;;16.95;5.50;;;11.50;99.90;;;;;;5089055;28;20085;-81
2023/03/13 07:34:47;;;;;;;12.15;5.30;;;11.50;99.90;;;;;;5144626;27;20412;-79
2023/03/13 07:37:14;;;;;;;11.65;5.05;;;11.60;99.90;;;;;;5111807;28;20036;-81
2023/03/13 07:39:40;;;;;;;12.65;4.70;;;11.50;99.90;;;;;;5089885;28;20032;-80
2023/03/13 07:42:05;;;;;;;13.43;4.70;;;11.50;99.90;;;;;;5113277;27;20039;-80
2023/03/13 07:44:32;;;;;;;13.68;5.00;;;11.50;99.90;;;;;;5138390;27;20113;-81
2023/03/13 07:47:00;;;;;;;13.73;5.68;;;11.50;99.90;;;;;;5138298;27;20495;-80
2023/03/13 07:49:26;;;;;;;13.30;4.65;;;11.40;99.90;;;;;;5112779;27;20456;-80
2023/03/13 07:51:52;;;;;;;14.05;4.75;;;11.40;99.90;;;;;;5112242;28;20032;-80
2023/03/13 07:54:17;;;;;;;13.70;4.82;;;11.40;99.90;;;;;;5141724;27;20031;-81
2023/03/13 07:56:43;;;;;;;11.20;4.35;;;11.30;99.90;;;;;;5134495;27;20058;-80
2023/03/13 07:59:09;;;;;;;7.53;3.70;;;11.30;99.90;;;;;;5115144;27;20032;-82
2023/03/13 08:01:34;;;;;;;11.02;4.80;;;11.30;99.90;;;;;;5110321;28;20440;-82
2023/03/13 08:04:00;;;;;;;11.77;3.92;;;11.30;99.90;;;;;;5114436;27;20166;-82
2023/03/13 08:06:26;;;;;;;8.43;3.75;;;11.30;99.90;;;;;;5112459;27;20028;-79
2023/03/13 08:08:55;;;;;;;8.70;4.00;;;11.30;99.90;;;;;;5110705;27;20035;-81
2023/03/13 08:11:25;;;;;;;8.93;4.07;;;11.30;99.90;;;;;;5126460;27;20086;-82
2023/03/13 08:13:52;;;;;;;11.18;4.05;;;11.30;99.90;;;;;;5108877;27;20040;-83
2023/03/13 08:16:23;;;;;;;10.00;3.40;;;11.30;99.90;;;;;;5107136;28;20036;-81
2023/03/13 08:18:52;;;;;;;5.85;3.13;;;11.30;99.90;;;;;;5106145;28;20063;-82
2023/03/13 08:21:26;;;;;;;12.75;3.75;;;11.40;99.90;;;;;;5090111;28;20138;-81
2023/03/13 08:23:54;;;;;;;7.45;3.25;;;11.40;99.90;;;;;;5111052;27;20119;-82
2023/03/13 08:26:22;;;;;;;8.30;3.50;;;11.50;99.90;;;;;;5111681;27;20562;-81
2023/03/13 08:28:52;;;;;;;9.07;3.47;;;11.60;99.90;;;;;;5090321;28;20414;-80
2023/03/13 08:31:20;;;;;;;10.02;3.00;;;11.70;99.90;;;;;;5132867;27;20028;-82
2023/03/13 08:33:46;;;;;;;9.20;3.10;;;11.80;99.90;;;;;;5109615;28;20043;-82
2023/03/13 08:36:18;;;;;;;6.32;2.90;;;11.90;99.90;;;;;;5102718;28;20071;-79
2023/03/13 08:38:44;;;;;;;6.38;2.60;;;12.00;99.90;;;;;;5102850;28;20055;-81
2023/03/13 08:41:11;;;;;;;6.60;2.50;;;12.10;99.90;;;;;;5087705;28;20522;-82
2023/03/13 08:43:37;;;;;;;8.02;2.78;;;12.20;99.90;;;;;;5086845;28;20039;-84
2023/03/13 08:46:03;;;;;;;10.10;2.42;;;12.30;99.90;;;;;;5119638;27;20089;-84
2023/03/13 08:48:28;;;;;;;6.80;2.00;;;12.40;99.90;;;;;;5116725;27;20035;-82
2023/03/13 08:51:14;;;;;;;5.45;1.70;;;12.40;99.90;;;;;;5105847;28;20035;-82
2023/03/13 08:53:41;;;;;;;5.47;1.85;;;12.50;99.90;;;;;;5108055;28;20110;-83
2023/03/13 08:56:09;;;;;;;5.72;1.83;;;12.60;99.90;;;;;;5099600;28;20040;-82
2023/03/13 08:58:35;;;;;;;6.05;2.17;;;12.70;99.90;;;;;;5086424;27;20143;-82
2023/03/13 09:01:12;;;;;;;6.93;1.73;;;12.80;99.90;;;;;;5113040;27;20506;-83
2023/03/13 09:03:38;;;;;;;5.22;1.58;;;12.90;99.90;;;;;;5106885;28;20040;-82
2023/03/13 09:06:04;;;;;;;4.88;1.55;;;12.90;99.90;;;;;;5103152;27;20391;-83
2023/03/13 09:08:31;;;;;;;4.72;1.80;;;12.90;99.90;;;;;;5115033;27;20035;-82
2023/03/13 09:11:01;;;;;;;5.70;1.85;;;12.90;99.90;;;;;;5093378;28;20047;-83
2023/03/13 09:13:29;;;;;;;6.95;2.00;;;12.80;99.90;;;;;;5105962;28;20036;-83
2023/03/13 09:15:56;;;;;;;7.13;1.65;;;12.80;99.90;;;;;;5119713;27;20059;-81
2023/03/13 09:18:22;;;;;;;4.93;1.48;;;12.70;99.90;;;;;;5105150;28;20040;-82
2023/03/13 09:20:48;;;;;;;4.97;2.13;;;12.60;99.90;;;;;;5087251;28;20043;-82
2023/03/13 09:23:13;;;;;;;6.70;1.98;;;12.60;99.90;;;;;;5107085;28;20111;-83
2023/03/13 09:25:39;;;;;;;7.18;2.10;;;12.50;99.90;;;;;;5108633;28;20031;-82
2023/03/13 09:28:04;;;;;;;12.07;2.55;;;12.50;99.90;;;;;;5104002;28;20039;-84
2023/03/13 09:30:30;;;;;;;9.75;2.83;;;12.50;99.90;;;;;;5101773;28;20056;-85
2023/03/13 09:32:55;;;;;;;9.75;3.10;;;12.40;99.90;;;;;;5108664;28;20043;-84
2023/03/13 09:35:21;;;;;;;8.20;2.22;;;12.40;99.90;;;;;;5089006;28;20407;-83
2023/03/13 09:37:46;;;;;;;9.98;2.33;;;12.30;99.90;;;;;;5089101;28;20502;-85
2023/03/13 09:40:16;;;;;;;14.27;2.65;;;12.30;99.90;;;;;;5097357;28;20032;-84
2023/03/13 09:42:50;;;;;;;9.70;2.40;;;12.30;99.90;;;;;;5111884;28;20039;-85
2023/03/13 09:45:33;;;;;;;12.07;3.08;;;12.30;99.90;;;;;;5107328;28;20036;-84
2023/03/13 09:48:07;;;;;;;11.65;2.47;;;12.40;99.90;;;;;;5095464;28;20036;-85
2023/03/13 09:50:35;;;;;;;13.45;3.28;;;12.30;99.90;;;;;;5096941;28;20032;-84
2023/03/13 09:53:16;;;;;;;11.85;2.67;;;12.40;99.90;;;;;;5116912;27;20047;-84
2023/03/13 09:55:44;;;;;;;11.25;2.53;;;12.40;99.90;;;;;;5115068;27;20035;-82
2023/03/13 09:58:12;;;;;;;9.43;2.50;;;12.40;99.90;;;;;;5100662;28;20036;-84
2023/03/13 10:00:47;;;;;;;9.57;2.58;;;12.50;99.90;;;;;;5110732;27;20047;-83
2023/03/13 10:03:28;;;;;;;8.60;2.58;;;12.60;99.90;;;;;;5109591;27;20047;-83
2023/03/13 10:06:18;;;;;;;9.43;2.38;;;12.80;99.90;;;;;;5094567;27;20038;-85
2023/03/13 10:08:43;;;;;;;13.57;3.10;;;12.80;99.90;;;;;;5111556;27;20093;-84
2023/03/13 10:11:10;;;;;;;12.27;3.35;;;12.90;99.90;;;;;;5115891;27;20035;-83
2023/03/13 10:13:52;;;;;;;12.30;2.92;;;13.10;99.90;;;;;;5106494;28;20120;-84
2023/03/13 10:16:25;;;;;;;12.75;3.10;;;13.20;99.90;;;;;;5110596;27;20044;-84
2023/03/13 10:18:57;;;;;;;12.52;3.25;;;13.40;99.90;;;;;;5106397;28;20095;-84
2023/03/13 10:21:29;;;;;;;12.30;2.85;;;13.50;99.90;;;;;;5130618;27;20527;-84
2023/03/13 10:24:13;;;;;;;11.23;2.88;;;13.70;99.90;;;;;;5109355;27;20523;-83
2023/03/13 10:26:39;;;;;;;14.95;3.50;;;13.90;99.90;;;;;;5114635;27;20055;-83
2023/03/13 10:29:17;;;;;;;12.55;3.50;;;13.90;99.90;;;;;;5109277;27;20062;-84
2023/03/13 10:31:50;;;;;;;13.60;3.65;;;14.10;99.90;;;;;;5109418;27;20031;-84
2023/03/13 10:34:15;;;;;;;12.98;2.83;;;14.20;99.90;;;;;;5094603;28;20075;-84
2023/03/13 10:36:47;;;;;;;14.10;2.80;;;14.10;99.90;;;;;;5105391;28;20066;-84
2023/03/13 10:39:18;;;;;;;16.15;3.22;;;14.20;99.90;;;;;;5090175;28;20055;-84
2023/03/13 10:41:45;;;;;;;10.73;2.30;;;14.20;99.90;;;;;;5094944;27;20039;-85
2023/03/13 10:44:19;;;;;;;14.38;3.08;;;14.20;99.90;;;;;;5093046;28;20050;-84
2023/03/13 10:46:47;;;;;;;16.33;2.75;;;14.20;99.90;;;;;;5098213;28;20035;-84
2023/03/13 10:49:18;;;;;;;11.32;2.97;;;14.20;99.90;;;;;;5093190;28;20035;-83
2023/03/13 10:51:48;;;;;;;14.30;3.00;;;14.00;99.90;;;;;;5092541;28;20099;-84
2023/03/13 10:54:15;;;;;;;16.35;2.88;;;14.00;99.90;;;;;;5094769;27;20047;-83
2023/03/13 10:56:41;;;;;;;14.90;3.45;;;14.00;99.90;;;;;;5113330;27;20039;-84
2023/03/13 10:59:21;;;;;;;12.13;2.95;;;13.90;99.90;;;;;;5094239;28;20036;-84
2023/03/13 11:01:47;;;;;;;13.38;3.15;;;13.90;99.90;;;;;;5088890;28;20038;-85
2023/03/13 11:04:34;;;;;;;13.20;3.25;;;13.90;99.90;;;;;;5117863;27;20406;-85
2023/03/13 11:07:24;;;;;;;12.75;3.22;;;13.90;99.90;;;;;;5114682;27;20079;-84
2023/03/13 11:10:02;;;;;;;9.90;2.50;;;13.90;99.90;;;;;;5104519;28;20115;-84
2023/03/13 11:12:33;;;;;;;10.55;2.85;;;13.90;99.90;;;;;;5101376;28;20035;-83
2023/03/13 11:15:00;;;;;;;11.32;2.67;;;13.90;99.90;;;;;;5103831;28;20534;-84
2023/03/13 11:17:37;;;;;;;11.18;2.60;;;13.90;99.90;;;;;;5109980;27;20088;-84
2023/03/13 11:20:26;;;;;;;12.23;3.00;;;13.90;99.90;;;;;;5122713;27;20409;-82
2023/03/13 11:23:17;;;;;;;14.05;2.67;;;14.00;99.90;;;;;;5084916;28;20036;-83
2023/03/13 11:26:15;;;;;;;11.35;2.38;;;14.10;99.90;;;;;;5125533;27;20071;-83
2023/03/13 11:28:58;;;;;;;12.70;2.40;;;14.10;99.90;;;;;;5124081;27;20426;-82
2023/03/13 11:31:37;;;;;;;11.63;2.35;;;14.10;99.90;;;;;;5107871;28;20451;-83
2023/03/13 11:34:41;;;;;;;11.63;2.40;;;14.00;99.90;;;;;;5091507;28;20541;-83
2023/03/13 11:37:13;;;;;;;12.97;2.60;;;14.00;99.90;;;;;;5114602;27;20080;-85
2023/03/13 11:39:58;;;;;;;8.82;2.00;;;14.00;99.90;;;;;;5099612;28;20274;-84
2023/03/13 11:42:49;;;;;;;11.35;2.20;;;14.00;99.90;;;;;;5099825;28;20123;-82
2023/03/13 11:45:56;;;;;;;8.82;2.13;;;14.10;99.90;;;;;;5091401;28;20548;-86
2023/03/13 11:48:53;;;;;;;9.05;2.58;;;14.40;99.90;;;;;;5107220;28;20035;-83
2023/03/13 11:51:36;;;;;;;8.43;2.28;;;14.70;99.90;;;;;;5108945;28;20034;-82
2023/03/13 11:54:25;;;;;;;6.23;1.90;;;14.90;99.90;;;;;;5098744;28;20036;-83
2023/03/13 11:56:57;;;;;;;7.22;2.17;;;14.90;99.90;;;;;;5102505;28;20212;-85
2023/03/13 11:59:52;;;;;;;8.98;1.90;;;14.80;99.90;;;;;;5094468;28;20164;-83
2023/03/13 12:02:35;;;;;;;9.02;2.25;;;14.70;99.90;;;;;;5112781;27;20039;-84
2023/03/13 12:05:09;;;;;;;8.45;2.38;;;14.70;99.90;;;;;;5107893;28;20042;-83
2023/03/13 12:07:49;;;;;;;10.50;2.58;;;14.70;99.90;;;;;;5087386;28;20109;-84
2023/03/13 12:10:20;;;;;;;11.57;2.28;;;14.70;99.90;;;;;;5104649;27;20073;-84
2023/03/13 12:12:57;;;;;;;10.25;2.50;;;14.70;99.90;;;;;;5107219;27;20042;-85
2023/03/13 12:15:28;;;;;;;10.70;2.60;;;14.70;99.90;;;;;;5103229;28;20047;-84
2023/03/13 12:18:19;;;;;;;8.88;2.50;;;14.70;99.90;;;;;;5092784;28;20046;-85
2023/03/13 12:21:03;;;;;;;11.07;2.80;;;14.70;99.90;;;;;;5101652;28;20046;-86
2023/03/13 12:23:35;;;;;;;14.88;2.92;;;14.50;99.90;;;;;;5104549;28;20040;-84
2023/03/13 12:26:07;;;;;;;16.23;2.60;;;14.40;99.90;;;;;;5134102;27;20036;-85
2023/03/13 12:28:36;;;;;;;15.13;3.05;;;14.60;99.90;;;;;;5104320;28;20031;-84
2023/03/13 12:31:35;;;;;;;11.85;3.10;;;14.80;99.90;;;;;;5087304;27;20035;-85
2023/03/13 12:34:42;;;;;;;11.48;3.08;;;15.00;99.90;;;;;;5086953;28;20036;-84
2023/03/13 12:37:10;;;;;;;13.98;3.10;;;15.10;99.90;;;;;;5089131;28;20071;-84
2023/03/13 12:39:56;;;;;;;13.45;3.05;;;14.90;99.90;;;;;;5107875;27;20449;-82
2023/03/13 12:42:29;;;;;;;16.08;3.35;;;15.00;99.90;;;;;;5088365;28;20043;-84
2023/03/13 12:44:56;;;;;;;18.77;3.30;;;15.00;99.90;;;;;;5110786;28;20043;-84
2023/03/13 12:47:21;;;;;;;15.18;3.00;;;15.10;99.90;;;;;;5101649;28;20040;-85
2023/03/13 12:49:53;;;;;;;14.93;3.03;;;15.10;99.90;;;;;;5103399;28;20040;-87
2023/03/13 12:52:51;;;;;;;12.45;2.78;;;15.10;99.90;;;;;;5136782;27;20047;-85
2023/03/13 12:55:55;;;;;;;13.55;3.00;;;15.20;99.90;;;;;;5076794;28;20059;-84